createdAt,value
2023-04-27T00:02:15.117Z,3.40
2023-04-27T00:04:43.333Z,3.20
2023-04-27T00:07:11.952Z,3.30
2023-04-27T00:09:39.188Z,3.30
2023-04-27T00:12:07.178Z,3.50
2023-04-27T00:14:34.708Z,3.80
2023-04-27T00:17:01.778Z,3.40
2023-04-27T00:19:30.751Z,3.80
2023-04-27T00:21:58.162Z,3.50
2023-04-27T00:24:25.220Z,3.20
2023-04-27T00:26:52.184Z,3.50
2023-04-27T00:29:19.215Z,2.60
2023-04-27T00:31:46.506Z,2.60
2023-04-27T00:34:13.540Z,3.10
2023-04-27T00:36:40.833Z,3.00
2023-04-27T00:39:07.760Z,3.50
2023-04-27T00:41:38.391Z,3.00
2023-04-27T00:44:05.639Z,3.10
2023-04-27T00:46:33.307Z,3.20
2023-04-27T00:49:01.122Z,3.10
2023-04-27T00:51:30.445Z,3.20
2023-04-27T00:53:58.125Z,2.90
2023-04-27T00:56:25.100Z,3.30
2023-04-27T00:58:52.211Z,3.60
2023-04-27T01:01:20.750Z,3.30
2023-04-27T01:03:48.629Z,3.20
2023-04-27T01:06:15.902Z,4.10
2023-04-27T01:08:44.192Z,3.90
2023-04-27T01:11:11.440Z,3.70
2023-04-27T01:13:39.604Z,3.90
2023-04-27T01:16:06.756Z,2.80
2023-04-27T01:18:35.126Z,2.90
2023-04-27T01:21:02.459Z,3.30
2023-04-27T01:23:29.992Z,3.20
2023-04-27T01:25:56.904Z,3.60
2023-04-27T01:28:24.028Z,3.40
2023-04-27T01:30:51.469Z,3.70
2023-04-27T01:33:18.845Z,3.20
2023-04-27T01:35:48.560Z,3.60
2023-04-27T01:38:16.438Z,3.80
2023-04-27T01:40:44.176Z,3.50
2023-04-27T01:43:11.543Z,3.60
2023-04-27T01:45:38.536Z,3.90
2023-04-27T01:48:05.780Z,4.00
2023-04-27T01:50:33.238Z,3.60
2023-04-27T01:53:00.889Z,3.90
2023-04-27T01:55:29.462Z,4.40
2023-04-27T01:57:56.612Z,4.30
2023-04-27T02:00:23.770Z,3.90
2023-04-27T02:02:53.838Z,4.40
2023-04-27T02:05:26.025Z,3.00
2023-04-27T02:07:53.470Z,3.20
2023-04-27T02:10:23.501Z,3.60
2023-04-27T02:12:55.260Z,3.70
2023-04-27T02:15:22.280Z,3.60
2023-04-27T02:17:49.393Z,4.00
2023-04-27T02:20:16.565Z,3.60
2023-04-27T02:22:44.503Z,4.00
2023-04-27T02:25:12.309Z,3.60
2023-04-27T02:27:40.276Z,4.10
2023-04-27T02:30:09.093Z,4.20
2023-04-27T02:32:36.786Z,4.30
2023-04-27T02:35:05.452Z,3.90
2023-04-27T02:37:32.512Z,4.30
2023-04-27T02:39:59.841Z,3.70
2023-04-27T02:42:27.466Z,4.40
2023-04-27T02:44:54.551Z,4.20
2023-04-27T02:47:21.503Z,2.90
2023-04-27T02:49:48.552Z,3.40
2023-04-27T02:52:15.805Z,3.30
2023-04-27T02:54:42.933Z,4.90
2023-04-27T02:57:09.915Z,4.70
2023-04-27T02:59:37.027Z,3.80
2023-04-27T03:02:04.072Z,4.30
2023-04-27T03:04:31.785Z,4.20
2023-04-27T03:06:58.882Z,4.00
2023-04-27T03:09:25.945Z,4.50
2023-04-27T03:11:53.395Z,4.90
2023-04-27T03:14:21.063Z,4.30
2023-04-27T03:16:48.219Z,4.50
2023-04-27T03:19:15.781Z,4.70
2023-04-27T03:21:42.937Z,3.30
2023-04-27T03:24:10.013Z,3.30
2023-04-27T03:28:28.073Z,3.70
2023-04-27T03:30:55.870Z,3.60
2023-04-27T03:33:23.055Z,3.80
2023-04-27T03:35:57.480Z,3.60
2023-04-27T03:38:25.511Z,4.10
2023-04-27T03:40:53.562Z,4.00
2023-04-27T03:43:21.142Z,3.70
2023-04-27T03:45:48.342Z,4.60
2023-04-27T03:48:16.457Z,4.80
2023-04-27T03:50:47.301Z,4.90
2023-04-27T03:53:16.170Z,4.50
2023-04-27T03:55:44.442Z,3.70
2023-04-27T03:58:11.714Z,3.60
2023-04-27T04:00:46.952Z,4.10
2023-04-27T04:03:14.503Z,5.20
2023-04-27T04:05:41.705Z,8.70
2023-04-27T04:08:09.363Z,9.80
2023-04-27T04:10:36.783Z,8.50
2023-04-27T04:13:03.862Z,7.50
2023-04-27T04:15:31.076Z,7.90
2023-04-27T04:17:58.115Z,6.20
2023-04-27T04:20:25.392Z,6.30
2023-04-27T04:22:52.401Z,6.40
2023-04-27T04:25:20.803Z,5.70
2023-04-27T04:27:48.826Z,5.70
2023-04-27T04:30:16.621Z,3.90
2023-04-27T04:32:45.185Z,3.70
2023-04-27T04:35:12.518Z,4.20
2023-04-27T04:37:39.940Z,4.90
2023-04-27T04:40:11.235Z,5.50
2023-04-27T04:42:38.575Z,5.70
2023-04-27T04:45:07.452Z,5.20
2023-04-27T04:47:35.542Z,5.20
2023-04-27T04:50:02.598Z,4.90
2023-04-27T04:52:31.097Z,4.30
2023-04-27T04:54:58.039Z,4.90
2023-04-27T04:57:25.075Z,5.50
2023-04-27T04:59:52.611Z,5.60
2023-04-27T05:02:19.626Z,4.90
2023-04-27T05:04:47.120Z,5.20
2023-04-27T05:07:15.282Z,4.90
2023-04-27T05:09:43.065Z,4.80
2023-04-27T05:12:10.265Z,4.90
2023-04-27T05:14:37.621Z,5.40
2023-04-27T05:17:04.630Z,5.00
2023-04-27T05:19:32.284Z,5.30
2023-04-27T05:21:59.284Z,5.60
2023-04-27T05:24:26.537Z,5.30
2023-04-27T05:26:54.004Z,5.10
2023-04-27T05:29:22.081Z,5.50
2023-04-27T05:31:49.191Z,5.20
2023-04-27T05:34:16.289Z,4.90
2023-04-27T05:36:43.999Z,5.60
2023-04-27T05:39:11.072Z,5.40
2023-04-27T05:41:38.132Z,7.30
2023-04-27T05:44:05.109Z,6.40
2023-04-27T05:46:32.232Z,5.40
2023-04-27T05:48:59.494Z,5.30
2023-04-27T05:51:27.130Z,6.00
2023-04-27T05:53:55.448Z,5.20
2023-04-27T05:56:22.759Z,5.10
2023-04-27T05:58:49.657Z,5.80
2023-04-27T06:01:16.715Z,5.60
2023-04-27T06:03:43.928Z,5.60
2023-04-27T06:06:11.293Z,5.20
2023-04-27T06:08:39.545Z,5.60
2023-04-27T06:11:07.681Z,5.30
2023-04-27T06:13:34.633Z,4.80
2023-04-27T06:16:01.833Z,5.60
2023-04-27T06:18:29.034Z,5.00
2023-04-27T06:21:02.366Z,4.70
2023-04-27T06:23:29.741Z,5.30
2023-04-27T06:25:56.841Z,5.00
2023-04-27T06:28:23.789Z,5.80
2023-04-27T06:30:50.831Z,5.60
2023-04-27T06:33:17.918Z,5.40
2023-04-27T06:35:47.240Z,5.20
2023-04-27T06:38:14.695Z,5.90
2023-04-27T06:40:41.892Z,5.40
2023-04-27T06:43:09.021Z,5.70
2023-04-27T06:45:36.252Z,5.10
2023-04-27T06:48:03.490Z,5.20
2023-04-27T06:50:31.008Z,5.60
2023-04-27T06:52:58.102Z,5.20
2023-04-27T06:55:25.364Z,5.30
2023-04-27T06:57:52.461Z,6.10
2023-04-27T07:00:20.202Z,6.40
2023-04-27T07:02:47.492Z,6.10
2023-04-27T07:05:14.479Z,4.90
2023-04-27T07:07:41.560Z,5.40
2023-04-27T07:10:09.239Z,5.70
2023-04-27T07:12:37.681Z,5.50
2023-04-27T07:15:07.427Z,5.40
2023-04-27T07:17:35.015Z,5.60
2023-04-27T07:20:02.126Z,5.80
2023-04-27T07:22:29.278Z,5.90
2023-04-27T07:24:56.243Z,5.70
2023-04-27T07:27:23.170Z,6.00
2023-04-27T07:29:50.176Z,7.20
2023-04-27T07:32:17.171Z,7.00
2023-04-27T07:34:52.879Z,5.90
2023-04-27T07:37:22.190Z,5.30
2023-04-27T07:39:50.440Z,5.10
2023-04-27T07:42:18.539Z,5.20
2023-04-27T07:44:45.506Z,5.70
2023-04-27T07:47:14.093Z,6.30
2023-04-27T07:49:41.273Z,6.30
2023-04-27T07:52:08.531Z,5.50
2023-04-27T07:54:36.589Z,5.80
2023-04-27T07:57:11.655Z,5.10
2023-04-27T07:59:39.537Z,5.40
2023-04-27T08:02:17.897Z,5.60
2023-04-27T08:04:46.859Z,5.30
2023-04-27T08:07:18.715Z,5.80
2023-04-27T08:09:46.647Z,5.30
2023-04-27T08:12:13.564Z,5.30
2023-04-27T08:14:40.527Z,4.80
2023-04-27T08:17:07.624Z,4.30
2023-04-27T08:19:35.200Z,4.00
2023-04-27T08:22:02.034Z,4.30
2023-04-27T08:24:29.398Z,4.10
2023-04-27T08:26:56.359Z,4.00
2023-04-27T08:29:27.781Z,3.50
2023-04-27T08:31:57.945Z,3.50
2023-04-27T08:34:24.929Z,3.90
2023-04-27T08:36:51.924Z,5.30
2023-04-27T08:39:19.163Z,8.90
2023-04-27T08:41:46.497Z,3.60
2023-04-27T08:44:13.412Z,3.60
2023-04-27T08:46:41.418Z,3.30
2023-04-27T08:49:08.589Z,3.80
2023-04-27T08:51:35.994Z,3.10
2023-04-27T08:54:02.946Z,3.50
2023-04-27T08:56:30.093Z,3.50
2023-04-27T08:58:57.694Z,3.30
2023-04-27T09:01:25.501Z,3.20
2023-04-27T09:03:59.831Z,3.20
2023-04-27T09:06:33.977Z,4.30
2023-04-27T09:09:01.736Z,3.60
2023-04-27T09:11:34.003Z,3.50
2023-04-27T09:14:02.842Z,3.60
2023-04-27T09:16:30.689Z,3.50
2023-04-27T09:18:58.488Z,3.10
2023-04-27T09:21:29.594Z,3.20
2023-04-27T09:23:56.849Z,3.00
2023-04-27T09:26:25.264Z,2.90
2023-04-27T09:28:53.953Z,5.80
2023-04-27T09:33:29.827Z,2.80
2023-04-27T09:35:59.653Z,2.50
2023-04-27T09:38:26.743Z,2.80
2023-04-27T09:40:54.369Z,3.00
2023-04-27T09:43:22.068Z,2.50
2023-04-27T09:45:50.383Z,2.50
2023-04-27T09:48:17.491Z,2.70
2023-04-27T09:50:45.331Z,2.10
2023-04-27T09:53:15.549Z,2.20
2023-04-27T09:56:01.377Z,2.20
2023-04-27T09:58:36.999Z,2.10
2023-04-27T10:01:13.209Z,2.00
2023-04-27T10:03:51.910Z,2.30
2023-04-27T10:06:34.748Z,2.40
2023-04-27T10:09:06.586Z,2.20
2023-04-27T10:11:41.000Z,2.80
2023-04-27T10:14:09.422Z,2.00
2023-04-27T10:16:53.128Z,2.00
2023-04-27T10:19:21.134Z,1.60
2023-04-27T10:22:08.558Z,2.10
2023-04-27T10:24:37.124Z,1.80
2023-04-27T10:27:05.908Z,2.50
2023-04-27T10:29:41.849Z,2.80
2023-04-27T10:32:11.073Z,2.30
2023-04-27T10:34:38.607Z,2.10
2023-04-27T10:37:07.267Z,1.80
2023-04-27T10:39:47.035Z,1.90
2023-04-27T10:42:15.308Z,1.90
2023-04-27T10:44:42.351Z,2.00
2023-04-27T10:47:16.138Z,1.90
2023-04-27T10:49:43.377Z,1.70
2023-04-27T10:52:10.329Z,1.50
2023-04-27T10:54:39.495Z,1.50
2023-04-27T10:57:07.865Z,1.70
2023-04-27T10:59:35.910Z,1.40
2023-04-27T11:02:03.205Z,1.50
2023-04-27T11:04:40.379Z,1.80
2023-04-27T11:07:11.303Z,2.00
2023-04-27T11:12:08.812Z,2.10
2023-04-27T11:14:37.018Z,1.90
2023-04-27T11:17:07.277Z,2.30
2023-04-27T11:19:44.465Z,2.00
2023-04-27T11:22:11.703Z,1.70
2023-04-27T11:24:47.897Z,1.50
2023-04-27T11:27:14.847Z,1.50
2023-04-27T11:29:42.567Z,1.40
2023-04-27T11:32:18.109Z,1.90
2023-04-27T11:34:49.904Z,1.70
2023-04-27T11:37:21.959Z,2.00
2023-04-27T11:39:48.866Z,1.80
2023-04-27T11:42:19.550Z,2.20
2023-04-27T11:44:57.295Z,1.70
2023-04-27T11:47:28.850Z,1.90
2023-04-27T11:49:57.348Z,1.30
2023-04-27T11:52:33.572Z,1.90
2023-04-27T11:55:01.144Z,2.60
2023-04-27T11:57:29.867Z,1.80
2023-04-27T11:59:57.915Z,2.00
2023-04-27T12:02:24.915Z,1.60
2023-04-27T12:04:52.375Z,1.90
2023-04-27T12:07:19.808Z,1.60
2023-04-27T12:09:46.945Z,1.70
2023-04-27T12:12:14.680Z,1.60
2023-04-27T12:14:42.126Z,2.10
2023-04-27T12:17:09.434Z,1.80
2023-04-27T12:19:37.381Z,2.00
2023-04-27T12:22:04.764Z,1.40
2023-04-27T12:24:32.397Z,1.50
2023-04-27T12:26:59.844Z,1.30
2023-04-27T12:29:28.373Z,1.70
2023-04-27T12:31:55.304Z,1.70
2023-04-27T12:34:22.224Z,1.40
2023-04-27T12:36:49.165Z,1.30
2023-04-27T12:39:20.467Z,1.50
2023-04-27T12:41:47.815Z,1.60
2023-04-27T12:44:15.072Z,1.90
2023-04-27T12:46:42.816Z,1.70
2023-04-27T12:49:10.038Z,1.90
2023-04-27T12:51:37.481Z,1.50
2023-04-27T12:54:04.966Z,1.70
2023-04-27T12:56:33.423Z,2.00
2023-04-27T12:59:00.442Z,2.00
2023-04-27T13:01:31.729Z,1.40
2023-04-27T13:04:00.041Z,1.40
2023-04-27T13:06:27.786Z,1.40
2023-04-27T13:08:54.730Z,1.10
2023-04-27T13:11:21.694Z,1.40
2023-04-27T13:13:48.968Z,1.40
2023-04-27T13:16:16.691Z,1.50
2023-04-27T13:18:48.415Z,1.50
2023-04-27T13:21:15.568Z,1.70
2023-04-27T13:23:42.647Z,1.70
2023-04-27T13:26:09.635Z,1.20
2023-04-27T13:28:36.712Z,1.50
2023-04-27T13:31:04.339Z,1.70
2023-04-27T13:33:32.817Z,1.40
2023-04-27T13:36:02.425Z,1.70
2023-04-27T13:38:29.638Z,1.80
2023-04-27T13:40:56.610Z,1.40
2023-04-27T13:43:23.581Z,1.40
2023-04-27T13:45:52.687Z,1.50
2023-04-27T13:48:19.663Z,1.80
2023-04-27T13:50:46.838Z,1.90
2023-04-27T13:53:16.153Z,2.10
2023-04-27T13:55:44.039Z,1.50
2023-04-27T13:58:11.995Z,1.40
2023-04-27T14:00:39.285Z,1.70
2023-04-27T14:03:08.995Z,1.30
2023-04-27T14:05:36.599Z,1.70
2023-04-27T14:08:03.789Z,2.00
2023-04-27T14:10:31.133Z,2.80
2023-04-27T14:12:58.087Z,1.70
2023-04-27T14:15:24.958Z,1.50
2023-04-27T14:17:51.930Z,1.50
2023-04-27T14:20:18.872Z,1.70
2023-04-27T14:22:46.571Z,1.90
2023-04-27T14:25:13.576Z,1.80
2023-04-27T14:27:40.641Z,1.70
2023-04-27T14:30:08.537Z,1.40
2023-04-27T14:32:36.671Z,2.20
2023-04-27T14:35:04.129Z,1.80
2023-04-27T14:37:31.273Z,1.90
2023-04-27T14:39:58.279Z,2.10
2023-04-27T14:42:25.418Z,2.60
2023-04-27T14:44:52.397Z,2.80
2023-04-27T14:47:19.723Z,2.80
2023-04-27T14:49:46.717Z,2.00
2023-04-27T14:52:13.852Z,1.60
2023-04-27T14:54:41.703Z,1.60
2023-04-27T14:57:08.871Z,1.50
2023-04-27T14:59:35.827Z,2.20
2023-04-27T15:02:03.820Z,2.00
2023-04-27T15:04:31.160Z,1.80
2023-04-27T15:06:58.243Z,1.40
2023-04-27T15:09:25.269Z,1.30
2023-04-27T15:11:52.571Z,1.40
2023-04-27T15:14:20.656Z,1.70
2023-04-27T15:16:47.632Z,2.70
2023-04-27T15:19:15.557Z,3.00
2023-04-27T15:21:42.710Z,1.70
2023-04-27T15:24:09.688Z,2.70
2023-04-27T15:26:36.597Z,3.00
2023-04-27T15:29:04.575Z,8.40
2023-04-27T15:31:31.963Z,2.10
2023-04-27T15:33:58.993Z,2.10
2023-04-27T15:36:28.448Z,2.60
2023-04-27T15:38:55.444Z,3.40
2023-04-27T15:41:22.515Z,2.50
2023-04-27T15:43:50.841Z,2.40
2023-04-27T15:46:19.045Z,2.00
2023-04-27T15:48:46.008Z,1.80
2023-04-27T15:51:12.956Z,3.10
2023-04-27T15:53:39.875Z,2.40
2023-04-27T15:56:07.139Z,2.90
2023-04-27T15:58:34.269Z,2.60
2023-04-27T16:01:01.375Z,2.50
2023-04-27T16:03:28.655Z,2.60
2023-04-27T16:05:56.164Z,2.30
2023-04-27T16:08:23.155Z,2.70
2023-04-27T16:10:50.559Z,2.80
2023-04-27T16:13:17.503Z,2.80
2023-04-27T16:15:44.983Z,2.60
2023-04-27T16:18:11.968Z,2.60
2023-04-27T16:20:38.980Z,2.50
2023-04-27T16:23:05.944Z,2.30
2023-04-27T16:25:33.197Z,2.80
2023-04-27T16:28:00.931Z,2.60
2023-04-27T16:30:27.891Z,2.30
2023-04-27T16:32:55.790Z,2.30
2023-04-27T16:35:23.223Z,3.00
2023-04-27T16:37:50.559Z,3.30
2023-04-27T16:40:17.540Z,2.40
2023-04-27T16:42:44.467Z,3.10
2023-04-27T16:45:11.622Z,3.30
2023-04-27T16:47:38.971Z,2.80
2023-04-27T16:50:06.650Z,2.80
2023-04-27T16:52:33.866Z,2.60
2023-04-27T16:55:00.862Z,3.10
2023-04-27T16:57:27.760Z,3.70
2023-04-27T16:59:54.734Z,3.80
2023-04-27T17:02:25.212Z,4.10
2023-04-27T17:04:54.183Z,4.20
2023-04-27T17:07:21.464Z,3.60
2023-04-27T17:09:48.675Z,3.80
2023-04-27T17:12:16.733Z,2.90
2023-04-27T17:14:43.792Z,2.70
2023-04-27T17:17:11.170Z,2.60
2023-04-27T17:19:39.074Z,2.40
2023-04-27T17:22:08.181Z,2.40
2023-04-27T17:24:35.139Z,3.10
2023-04-27T17:27:04.148Z,2.60
2023-04-27T17:29:31.862Z,2.80
2023-04-27T17:31:58.973Z,3.00
2023-04-27T17:34:26.032Z,3.40
2023-04-27T17:36:53.023Z,3.30
2023-04-27T17:39:22.637Z,2.80
2023-04-27T17:41:49.630Z,3.40
2023-04-27T17:44:16.670Z,3.00
2023-04-27T17:46:50.443Z,3.00
2023-04-27T17:49:18.151Z,2.90
2023-04-27T17:51:45.905Z,3.10
2023-04-27T17:54:13.011Z,3.60
2023-04-27T17:56:40.218Z,3.30
2023-04-27T17:59:10.156Z,3.20
2023-04-27T18:01:37.901Z,4.10
2023-04-27T18:04:07.203Z,5.20
2023-04-27T18:06:35.833Z,9.20
2023-04-27T18:09:03.393Z,10.30
2023-04-27T18:11:30.521Z,9.40
2023-04-27T18:14:00.265Z,10.10
2023-04-27T18:16:27.338Z,11.20
2023-04-27T18:18:54.335Z,12.40
2023-04-27T18:21:21.241Z,11.60
2023-04-27T18:23:48.316Z,14.10
2023-04-27T18:26:15.294Z,11.30
2023-04-27T18:28:42.551Z,10.30
2023-04-27T18:31:16.612Z,11.60
2023-04-27T18:33:44.463Z,15.80
2023-04-27T18:36:11.476Z,10.40
2023-04-27T18:38:38.410Z,9.00
2023-04-27T18:41:05.692Z,10.80
2023-04-27T18:43:35.035Z,10.50
2023-04-27T18:46:03.087Z,8.80
2023-04-27T18:48:30.179Z,11.60
2023-04-27T18:50:57.371Z,11.40
2023-04-27T18:53:24.401Z,15.00
2023-04-27T18:55:52.490Z,20.50
2023-04-27T18:58:19.896Z,20.60
2023-04-27T19:00:46.804Z,28.60
2023-04-27T19:03:13.921Z,21.30
2023-04-27T19:05:43.193Z,25.10
2023-04-27T19:08:10.506Z,20.90
2023-04-27T19:10:38.169Z,17.70
2023-04-27T19:13:05.079Z,15.60
2023-04-27T19:15:32.042Z,11.50
2023-04-27T19:18:06.878Z,12.00
2023-04-27T19:20:37.462Z,14.20
2023-04-27T19:23:05.510Z,22.30
2023-04-27T19:25:32.561Z,17.50
2023-04-27T19:28:00.619Z,16.50
2023-04-27T19:30:27.764Z,15.20
2023-04-27T19:32:54.868Z,15.40
2023-04-27T19:35:23.889Z,16.80
2023-04-27T19:37:51.262Z,15.60
2023-04-27T19:40:18.412Z,17.10
2023-04-27T19:42:45.695Z,17.80
2023-04-27T19:45:12.797Z,16.10
2023-04-27T19:47:40.155Z,14.50
2023-04-27T19:50:07.469Z,12.40
2023-04-27T19:52:34.756Z,13.10
2023-04-27T19:55:01.690Z,12.80
2023-04-27T19:57:28.942Z,13.40
2023-04-27T19:59:56.397Z,11.90
2023-04-27T20:02:23.477Z,11.10
2023-04-27T20:04:50.783Z,11.10
2023-04-27T20:07:18.104Z,10.80
2023-04-27T20:09:45.039Z,10.50
2023-04-27T20:12:28.944Z,11.40
2023-04-27T20:14:59.275Z,11.70
2023-04-27T20:17:26.352Z,11.00
2023-04-27T20:19:57.170Z,10.80
2023-04-27T20:22:24.157Z,12.50
2023-04-27T20:24:51.128Z,12.20
2023-04-27T20:27:18.155Z,12.70
2023-04-27T20:29:47.211Z,17.80
2023-04-27T20:32:14.151Z,16.10
2023-04-27T20:34:41.207Z,15.80
2023-04-27T20:37:09.649Z,16.50
2023-04-27T20:39:36.918Z,15.40
2023-04-27T20:42:03.938Z,13.90
2023-04-27T20:44:32.385Z,16.30
2023-04-27T20:46:59.380Z,14.10
2023-04-27T20:49:34.163Z,15.50
2023-04-27T20:52:01.885Z,16.30
2023-04-27T20:54:32.818Z,18.50
2023-04-27T20:57:03.112Z,18.60
2023-04-27T20:59:30.672Z,21.40
2023-04-27T21:01:57.714Z,23.70
2023-04-27T21:04:24.779Z,25.40
2023-04-27T21:06:52.969Z,25.30
2023-04-27T21:09:19.924Z,24.50
2023-04-27T21:11:47.007Z,24.20
2023-04-27T21:14:14.148Z,26.50
2023-04-27T21:16:41.539Z,26.30
2023-04-27T21:19:08.894Z,24.80
2023-04-27T21:21:36.172Z,20.40
2023-04-27T21:24:07.878Z,20.10
2023-04-27T21:26:35.466Z,13.80
2023-04-27T21:29:05.530Z,15.30
2023-04-27T21:31:33.519Z,16.30
2023-04-27T21:34:02.128Z,13.30
2023-04-27T21:36:29.220Z,11.60
2023-04-27T21:38:56.367Z,12.40
2023-04-27T21:41:23.368Z,11.30
2023-04-27T21:43:51.356Z,11.90
2023-04-27T21:46:18.438Z,13.10
2023-04-27T21:48:45.622Z,12.10
2023-04-27T21:51:12.612Z,10.50
2023-04-27T21:53:39.618Z,11.20
2023-04-27T21:56:06.941Z,9.60
2023-04-27T21:58:34.530Z,10.70
2023-04-27T22:01:01.492Z,9.00
2023-04-27T22:03:28.796Z,7.30
2023-04-27T22:05:57.673Z,6.80
2023-04-27T22:08:25.370Z,6.90
2023-04-27T22:10:52.513Z,8.00
2023-04-27T22:13:20.075Z,7.70
2023-04-27T22:15:47.954Z,8.10
2023-04-27T22:18:15.717Z,8.60
2023-04-27T22:20:43.053Z,8.40
2023-04-27T22:23:10.305Z,9.00
2023-04-27T22:25:37.601Z,8.30
2023-04-27T22:28:04.690Z,7.40
2023-04-27T22:30:31.774Z,7.30
2023-04-27T22:32:58.930Z,7.70
2023-04-27T22:35:27.705Z,7.60
2023-04-27T22:37:56.208Z,5.50
2023-04-27T22:40:23.331Z,4.90
2023-04-27T22:42:50.837Z,6.30
2023-04-27T22:45:17.825Z,5.50
2023-04-27T22:47:46.023Z,5.60
2023-04-27T22:50:13.834Z,6.20
2023-04-27T22:52:44.107Z,5.60
2023-04-27T22:55:11.627Z,5.00
2023-04-27T22:57:39.124Z,5.30
2023-04-27T23:00:09.023Z,4.70
2023-04-27T23:02:36.253Z,5.20
2023-04-27T23:05:03.961Z,5.20
2023-04-27T23:07:31.105Z,5.30
2023-04-27T23:10:00.968Z,4.70
2023-04-27T23:12:28.246Z,4.60
2023-04-27T23:14:55.548Z,5.30
2023-04-27T23:17:22.936Z,4.90
2023-04-27T23:19:50.299Z,4.50
2023-04-27T23:22:17.211Z,4.70
2023-04-27T23:24:44.205Z,5.30
2023-04-27T23:27:11.152Z,5.50
2023-04-27T23:29:39.026Z,5.70
2023-04-27T23:32:06.036Z,6.00
2023-04-27T23:34:33.417Z,6.30
2023-04-27T23:37:00.515Z,3.80
2023-04-27T23:39:30.703Z,4.70
2023-04-27T23:41:58.254Z,4.70
2023-04-27T23:44:25.304Z,4.60
2023-04-27T23:46:52.371Z,4.50
2023-04-27T23:49:19.343Z,4.60
2023-04-27T23:51:46.379Z,4.40
2023-04-27T23:54:13.527Z,5.00
2023-04-27T23:56:40.904Z,4.90
2023-04-27T23:59:08.210Z,4.70
